Time;durP1;ratioP1;P1;durP2;ratioP2;P2;SDS_P1;SDS_P2;PMS_P1;PMS_P2;Temp;Humidity;BMP_temperature;BMP_pressure;BME280_temperature;BME280_humidity;BME280_pressure;Samples;Min_cycle;Max_cycle;Signal;HPM_P1;HPM_P2
2023/06/08 00:00:26;;;;;;;21.40;8.95;;;12.30;99.90;;;;;;4868929;29;20303;-87
2023/06/08 00:02:55;;;;;;;19.38;9.18;;;12.30;99.90;;;;;;4899615;29;20438;-88
2023/06/08 00:05:22;;;;;;;22.30;10.80;;;12.20;99.90;;;;;;4885186;29;20033;-88
2023/06/08 00:07:48;;;;;;;20.50;10.05;;;12.30;99.90;;;;;;4890950;29;20029;-89
2023/06/08 00:10:17;;;;;;;20.52;10.23;;;12.20;99.90;;;;;;4893575;29;20048;-87
2023/06/08 00:12:44;;;;;;;20.38;10.30;;;12.20;99.90;;;;;;4910611;29;20033;-91
2023/06/08 00:15:13;;;;;;;21.08;10.90;;;12.20;99.90;;;;;;4911825;29;20036;-89
2023/06/08 00:17:39;;;;;;;23.85;11.80;;;12.20;99.90;;;;;;4881399;29;20132;-87
2023/06/08 00:20:08;;;;;;;23.55;12.40;;;12.20;99.90;;;;;;4866147;29;20052;-87
2023/06/08 00:22:36;;;;;;;22.92;11.00;;;12.20;99.90;;;;;;4880910;29;20044;-87
2023/06/08 00:25:06;;;;;;;19.67;11.15;;;12.20;99.90;;;;;;4865448;29;20052;-87
2023/06/08 00:27:34;;;;;;;22.80;11.18;;;12.30;99.90;;;;;;4880886;29;20041;-88
2023/06/08 00:30:00;;;;;;;19.15;10.55;;;12.20;99.90;;;;;;4865083;29;20041;-87
2023/06/08 00:32:26;;;;;;;19.63;10.90;;;12.20;99.90;;;;;;4896018;29;20037;-87
2023/06/08 00:34:52;;;;;;;20.52;10.52;;;12.20;99.90;;;;;;4897574;29;20041;-88
2023/06/08 00:37:18;;;;;;;17.83;11.02;;;12.20;99.90;;;;;;4880996;29;20080;-90
2023/06/08 00:39:44;;;;;;;16.58;10.75;;;12.20;99.90;;;;;;4896395;29;20048;-87
2023/06/08 00:42:10;;;;;;;20.67;10.02;;;12.20;99.90;;;;;;4895952;29;20052;-87
2023/06/08 00:44:39;;;;;;;20.42;9.55;;;12.10;99.90;;;;;;4880196;29;20319;-88
2023/06/08 00:47:07;;;;;;;21.80;10.02;;;12.10;99.90;;;;;;4871327;29;20514;-88
2023/06/08 00:49:33;;;;;;;22.40;10.35;;;12.10;99.90;;;;;;4868389;29;20092;-87
2023/06/08 00:52:01;;;;;;;16.42;9.68;;;12.10;99.90;;;;;;4883617;29;20028;-88
2023/06/08 00:54:32;;;;;;;24.40;10.02;;;12.10;99.90;;;;;;4868577;29;20362;-87
2023/06/08 00:57:03;;;;;;;21.45;10.75;;;12.10;99.90;;;;;;4883666;29;20051;-88
2023/06/08 00:59:34;;;;;;;20.75;10.70;;;12.10;99.90;;;;;;4885918;29;20068;-87
2023/06/08 01:02:00;;;;;;;18.73;11.15;;;12.10;99.90;;;;;;4887514;29;20143;-87
2023/06/08 01:04:28;;;;;;;21.30;10.20;;;12.10;99.90;;;;;;4887060;29;20119;-87
2023/06/08 01:07:14;;;;;;;17.85;10.40;;;12.10;99.90;;;;;;4887010;29;20061;-88
2023/06/08 01:09:51;;;;;;;20.10;9.52;;;12.10;99.90;;;;;;4902544;29;20025;-87
2023/06/08 01:12:32;;;;;;;18.95;9.48;;;12.10;99.90;;;;;;4902488;29;20031;-88
2023/06/08 01:15:27;;;;;;;19.27;9.63;;;12.10;99.90;;;;;;4902447;29;20427;-88
2023/06/08 01:18:04;;;;;;;22.65;9.93;;;12.10;99.90;;;;;;4902871;29;20068;-89
2023/06/08 01:21:07;;;;;;;19.80;9.98;;;12.10;99.90;;;;;;4888983;29;20043;-88
2023/06/08 01:23:44;;;;;;;16.58;9.35;;;12.10;99.90;;;;;;4887255;29;20539;-87
2023/06/08 01:26:15;;;;;;;21.55;11.45;;;12.10;99.90;;;;;;4868770;29;20518;-87
2023/06/08 01:28:46;;;;;;;21.73;10.40;;;12.10;99.90;;;;;;4895478;29;20427;-87
2023/06/08 01:31:13;;;;;;;16.60;10.05;;;12.00;99.90;;;;;;4884196;29;20041;-87
2023/06/08 01:33:39;;;;;;;23.45;11.13;;;12.10;99.90;;;;;;4869761;29;20056;-88
2023/06/08 01:36:28;;;;;;;20.67;9.82;;;12.10;99.90;;;;;;4870586;29;20064;-88
2023/06/08 01:39:03;;;;;;;22.88;10.13;;;12.10;99.90;;;;;;4885946;29;20033;-88
2023/06/08 01:41:36;;;;;;;22.63;10.10;;;12.00;99.90;;;;;;4907141;29;20081;-87
2023/06/08 01:44:05;;;;;;;20.33;10.00;;;12.10;99.90;;;;;;4882859;29;20052;-88
2023/06/08 01:46:33;;;;;;;19.55;10.00;;;12.00;99.90;;;;;;4883480;29;20085;-87
2023/06/08 01:49:02;;;;;;;20.70;9.90;;;12.00;99.90;;;;;;4898656;29;20033;-88
2023/06/08 01:51:30;;;;;;;18.75;10.10;;;12.00;99.90;;;;;;4883374;29;20449;-88
2023/06/08 01:54:08;;;;;;;22.38;11.00;;;12.00;99.90;;;;;;4867812;29;20033;-90
2023/06/08 01:56:35;;;;;;;15.77;9.27;;;12.00;99.90;;;;;;4898932;29;20088;-88
2023/06/08 01:59:02;;;;;;;17.83;10.20;;;12.10;99.90;;;;;;4898465;29;20033;-88
2023/06/08 02:01:29;;;;;;;21.25;10.38;;;12.10;99.90;;;;;;4867696;29;20033;-88
2023/06/08 02:03:56;;;;;;;20.17;10.00;;;12.10;99.90;;;;;;4898289;29;20044;-92
2023/06/08 02:06:22;;;;;;;22.80;11.02;;;12.10;99.90;;;;;;4883249;29;20390;-88
2023/06/08 02:08:48;;;;;;;21.35;9.93;;;12.10;99.90;;;;;;4867503;29;20108;-88
2023/06/08 02:11:14;;;;;;;15.52;8.52;;;12.10;99.90;;;;;;4851302;29;20030;-87
2023/06/08 02:13:44;;;;;;;23.35;9.35;;;12.10;99.90;;;;;;4882766;29;20411;-88
2023/06/08 02:16:11;;;;;;;22.05;8.30;;;12.10;99.90;;;;;;4870492;29;20427;-87
2023/06/08 02:18:40;;;;;;;19.05;8.60;;;12.10;99.90;;;;;;4865531;29;20041;-88
2023/06/08 02:21:07;;;;;;;15.98;8.57;;;12.10;99.90;;;;;;4882823;29;20048;-88
2023/06/08 02:23:33;;;;;;;16.95;7.78;;;12.10;99.90;;;;;;4882361;29;20037;-87
2023/06/08 02:26:03;;;;;;;19.20;8.57;;;12.10;99.90;;;;;;4898250;29;20450;-88
2023/06/08 02:28:32;;;;;;;18.42;8.60;;;12.10;99.90;;;;;;4897961;29;20040;-87
2023/06/08 02:30:58;;;;;;;15.15;8.93;;;12.10;99.90;;;;;;4867198;29;20097;-90
2023/06/08 02:33:24;;;;;;;18.25;9.40;;;12.10;99.90;;;;;;4882479;29;20036;-88
2023/06/08 02:35:50;;;;;;;20.40;9.32;;;12.10;99.90;;;;;;4869514;29;20509;-88
2023/06/08 02:38:17;;;;;;;23.45;8.63;;;12.10;99.90;;;;;;4885261;29;20111;-87
2023/06/08 02:40:43;;;;;;;18.17;8.57;;;12.10;99.90;;;;;;4901148;29;20036;-88
2023/06/08 02:43:09;;;;;;;15.82;7.95;;;12.10;99.90;;;;;;4885398;29;20044;-88
2023/06/08 02:45:39;;;;;;;16.92;7.82;;;12.10;99.90;;;;;;4886101;29;20025;-88
2023/06/08 02:48:06;;;;;;;16.98;7.57;;;12.10;99.90;;;;;;4885254;29;20044;-88
2023/06/08 02:50:32;;;;;;;17.52;7.78;;;12.20;99.90;;;;;;4885453;29;20033;-88
2023/06/08 02:52:58;;;;;;;17.52;7.97;;;12.10;99.90;;;;;;4854410;29;20427;-88
2023/06/08 02:55:24;;;;;;;20.20;7.88;;;12.10;99.90;;;;;;4885130;29;20062;-88
2023/06/08 02:57:52;;;;;;;15.75;7.32;;;12.10;99.90;;;;;;4885319;29;20037;-87
2023/06/08 03:00:21;;;;;;;17.60;7.45;;;12.20;99.90;;;;;;4901069;29;20028;-87
2023/06/08 03:03:13;;;;;;;14.80;7.63;;;12.20;99.90;;;;;;4856207;29;20075;-88
2023/06/08 03:05:43;;;;;;;20.98;8.13;;;12.10;99.90;;;;;;4882057;29;20416;-87
2023/06/08 03:08:09;;;;;;;18.48;7.18;;;12.10;99.90;;;;;;4866349;29;20128;-88
2023/06/08 03:10:36;;;;;;;18.65;8.10;;;12.10;99.90;;;;;;4881977;29;20061;-87
2023/06/08 03:13:04;;;;;;;20.48;8.55;;;12.10;99.90;;;;;;4881466;29;20044;-88
2023/06/08 03:15:30;;;;;;;23.23;8.80;;;12.10;99.90;;;;;;4900276;29;20120;-88
2023/06/08 03:18:01;;;;;;;22.45;8.95;;;12.10;99.90;;;;;;4884904;29;20052;-88
2023/06/08 03:20:27;;;;;;;17.92;8.85;;;12.10;99.90;;;;;;4885328;29;20047;-88
2023/06/08 03:23:00;;;;;;;19.77;9.35;;;12.10;99.90;;;;;;4852425;29;20355;-88
2023/06/08 03:25:28;;;;;;;21.42;10.32;;;12.10;99.90;;;;;;4866689;29;20036;-88
2023/06/08 03:27:55;;;;;;;24.85;11.55;;;12.10;99.90;;;;;;4881652;29;20117;-88
2023/06/08 03:30:21;;;;;;;19.95;12.27;;;12.00;99.90;;;;;;4866244;29;20065;-87
2023/06/08 03:32:51;;;;;;;22.77;12.45;;;12.10;99.90;;;;;;4881656;29;20398;-88
2023/06/08 03:35:23;;;;;;;22.13;13.20;;;12.00;99.90;;;;;;4900411;29;20033;-88
2023/06/08 03:38:05;;;;;;;25.73;12.88;;;12.10;99.90;;;;;;4884171;29;20055;-88
2023/06/08 03:40:33;;;;;;;22.75;13.57;;;12.10;99.90;;;;;;4869626;29;20037;-88
2023/06/08 03:42:59;;;;;;;20.60;12.32;;;12.10;99.90;;;;;;4865780;29;20044;-88
2023/06/08 03:45:30;;;;;;;26.35;12.70;;;12.10;99.90;;;;;;4866741;29;20029;-87
2023/06/08 03:47:59;;;;;;;22.13;11.48;;;12.10;99.90;;;;;;4850550;29;20069;-87
2023/06/08 03:50:28;;;;;;;26.45;11.40;;;12.10;99.90;;;;;;4865812;29;20033;-87
2023/06/08 03:52:54;;;;;;;22.17;11.40;;;12.10;99.90;;;;;;4881251;29;20037;-88
2023/06/08 03:55:21;;;;;;;19.33;11.00;;;12.10;99.90;;;;;;4850554;29;20052;-88
2023/06/08 03:57:47;;;;;;;16.15;9.50;;;12.10;99.90;;;;;;4865808;29;20035;-88
2023/06/08 04:00:15;;;;;;;21.83;9.57;;;12.10;99.90;;;;;;4896499;29;20029;-88
2023/06/08 04:02:41;;;;;;;20.58;9.43;;;12.10;99.90;;;;;;4882017;29;20029;-87
2023/06/08 04:05:14;;;;;;;19.30;8.95;;;12.20;99.90;;;;;;4895835;29;20033;-88
2023/06/08 04:07:41;;;;;;;16.00;8.73;;;12.20;99.90;;;;;;4881000;29;20045;-87
2023/06/08 04:10:08;;;;;;;21.33;8.35;;;12.20;99.90;;;;;;4881001;29;20097;-91
2023/06/08 04:12:34;;;;;;;16.42;7.55;;;12.20;99.90;;;;;;4865647;29;20033;-88
2023/06/08 04:15:01;;;;;;;20.70;8.13;;;12.20;99.90;;;;;;4881081;29;20037;-87
2023/06/08 04:17:28;;;;;;;17.08;7.50;;;12.20;99.90;;;;;;4865038;29;20047;-88
2023/06/08 04:19:55;;;;;;;21.80;7.60;;;12.20;99.90;;;;;;4866018;29;20089;-88
2023/06/08 04:22:22;;;;;;;17.88;7.13;;;12.30;99.90;;;;;;4900347;29;20441;-88
2023/06/08 04:24:52;;;;;;;18.52;6.28;;;12.20;99.90;;;;;;4870082;29;20068;-88
2023/06/08 04:27:19;;;;;;;18.88;6.47;;;12.30;99.90;;;;;;4915156;29;20033;-90
2023/06/08 04:29:45;;;;;;;15.88;6.80;;;12.30;99.90;;;;;;4899949;29;20065;-88
2023/06/08 04:32:11;;;;;;;17.30;6.00;;;12.30;99.90;;;;;;4883867;29;20032;-89
2023/06/08 04:34:38;;;;;;;14.95;5.57;;;12.30;99.90;;;;;;4871541;29;20363;-88
2023/06/08 04:37:04;;;;;;;18.98;6.38;;;12.30;99.90;;;;;;4919312;29;20063;-88
2023/06/08 04:39:33;;;;;;;17.83;6.68;;;12.30;99.90;;;;;;4878489;29;20037;-88
2023/06/08 04:41:59;;;;;;;23.30;6.93;;;12.40;99.90;;;;;;4899823;29;20033;-89
2023/06/08 04:44:31;;;;;;;14.90;6.07;;;12.40;99.90;;;;;;4914775;29;20041;-88
2023/06/08 04:46:59;;;;;;;19.05;6.25;;;12.40;99.90;;;;;;4868765;29;20132;-87
2023/06/08 04:49:31;;;;;;;20.50;6.38;;;12.40;99.90;;;;;;4891720;29;20035;-86
2023/06/08 04:51:59;;;;;;;17.38;6.18;;;12.50;99.90;;;;;;4891102;29;20037;-89
2023/06/08 04:54:28;;;;;;;15.30;5.93;;;12.50;99.90;;;;;;4889184;29;20056;-88
2023/06/08 04:56:58;;;;;;;15.38;6.07;;;12.50;99.90;;;;;;4902145;29;20060;-88
2023/06/08 04:59:25;;;;;;;17.58;6.50;;;12.50;99.90;;;;;;4884203;29;20037;-88
2023/06/08 05:01:52;;;;;;;15.25;6.45;;;12.50;99.90;;;;;;4869375;29;20045;-88
2023/06/08 05:04:21;;;;;;;19.40;6.38;;;12.60;99.90;;;;;;4887107;29;20036;-89
2023/06/08 05:06:50;;;;;;;19.35;6.07;;;12.60;99.90;;;;;;4870954;29;20173;-88
2023/06/08 05:09:19;;;;;;;16.13;6.32;;;12.60;99.90;;;;;;4870203;29;20088;-89
2023/06/08 05:11:47;;;;;;;15.82;5.72;;;12.70;99.90;;;;;;4882495;29;20036;-89
2023/06/08 05:14:13;;;;;;;14.82;5.40;;;12.70;99.90;;;;;;4860482;29;20099;-88
2023/06/08 05:16:39;;;;;;;18.08;6.10;;;12.70;99.90;;;;;;4885944;29;20041;-89
2023/06/08 05:19:08;;;;;;;19.10;5.78;;;12.70;99.90;;;;;;4902340;29;20096;-88
2023/06/08 05:21:37;;;;;;;18.67;5.32;;;12.80;99.90;;;;;;4902599;29;20419;-88
2023/06/08 05:24:04;;;;;;;21.85;5.65;;;12.80;99.90;;;;;;4902572;29;20040;-88
2023/06/08 05:26:30;;;;;;;16.13;5.57;;;12.80;99.90;;;;;;4892134;29;20114;-88
2023/06/08 05:28:58;;;;;;;14.85;5.30;;;12.80;99.90;;;;;;4902724;29;20061;-88
2023/06/08 05:31:26;;;;;;;19.98;5.32;;;12.90;99.90;;;;;;4890170;29;20058;-88
2023/06/08 05:33:55;;;;;;;18.75;5.50;;;13.00;99.90;;;;;;4893865;29;20036;-88
2023/06/08 05:36:21;;;;;;;15.48;5.25;;;13.00;99.90;;;;;;4901524;29;20049;-89
2023/06/08 05:38:49;;;;;;;18.48;5.50;;;13.00;99.90;;;;;;4871781;29;20044;-88
2023/06/08 05:41:15;;;;;;;17.40;5.60;;;13.10;99.90;;;;;;4886913;29;20036;-88
2023/06/08 05:43:42;;;;;;;15.15;5.20;;;13.20;99.90;;;;;;4871337;29;20040;-89
2023/06/08 05:46:10;;;;;;;18.00;5.60;;;13.20;99.90;;;;;;4890761;29;20029;-90
2023/06/08 05:48:39;;;;;;;18.40;5.35;;;13.40;99.90;;;;;;4894714;29;20426;-89
2023/06/08 05:51:05;;;;;;;15.52;5.50;;;13.40;99.90;;;;;;4852731;29;20040;-91
2023/06/08 05:53:31;;;;;;;15.70;4.85;;;13.50;99.90;;;;;;4871829;29;20344;-88
2023/06/08 05:55:59;;;;;;;15.45;5.70;;;13.50;99.90;;;;;;4899571;29;20469;-90
2023/06/08 05:58:28;;;;;;;15.88;5.93;;;13.40;99.90;;;;;;4888167;29;20112;-90
2023/06/08 06:00:58;;;;;;;20.33;5.63;;;13.40;99.90;;;;;;4886952;29;20116;-89
2023/06/08 06:03:29;;;;;;;18.00;5.38;;;13.40;99.90;;;;;;4854558;29;20513;-90
2023/06/08 06:05:58;;;;;;;15.93;5.43;;;13.40;99.90;;;;;;4881074;29;20068;-90
2023/06/08 06:08:24;;;;;;;15.93;6.00;;;13.40;99.90;;;;;;4902071;29;20041;-89
2023/06/08 06:10:50;;;;;;;22.73;6.47;;;13.40;99.90;;;;;;4886632;29;20065;-89
2023/06/08 06:13:17;;;;;;;17.98;5.50;;;13.40;99.90;;;;;;4902295;29;20039;-89
2023/06/08 06:15:43;;;;;;;19.50;5.75;;;13.50;99.90;;;;;;4917625;29;20076;-89
2023/06/08 06:18:09;;;;;;;21.13;5.93;;;13.50;99.90;;;;;;4917659;29;20025;-89
2023/06/08 06:20:38;;;;;;;22.85;6.20;;;13.50;99.90;;;;;;4902233;29;20426;-89
2023/06/08 06:23:04;;;;;;;21.10;5.90;;;13.60;99.90;;;;;;4901999;29;20075;-89
2023/06/08 06:25:38;;;;;;;16.23;5.50;;;13.70;99.90;;;;;;4886431;29;20073;-89
2023/06/08 06:28:09;;;;;;;18.90;5.18;;;13.80;99.90;;;;;;4886877;29;20570;-89
2023/06/08 06:30:36;;;;;;;19.50;5.07;;;13.90;99.90;;;;;;4901660;29;20087;-89
2023/06/08 06:33:05;;;;;;;15.23;4.57;;;14.00;99.90;;;;;;4868026;29;20037;-89
2023/06/08 06:35:36;;;;;;;14.00;4.90;;;14.00;99.90;;;;;;4898254;29;20033;-90
2023/06/08 06:38:04;;;;;;;15.98;5.18;;;14.20;99.90;;;;;;4882564;29;20052;-89
2023/06/08 06:40:32;;;;;;;14.38;4.82;;;14.20;99.90;;;;;;4882821;29;20345;-89
2023/06/08 06:43:01;;;;;;;14.00;4.95;;;14.30;99.90;;;;;;4898136;29;20037;-89
2023/06/08 06:45:50;;;;;;;13.63;4.85;;;14.30;99.90;;;;;;4881204;29;20037;-89
2023/06/08 06:48:20;;;;;;;11.60;4.60;;;14.40;99.90;;;;;;4916821;29;20029;-89
2023/06/08 06:50:49;;;;;;;13.57;5.05;;;14.40;99.90;;;;;;4901650;29;20032;-90
2023/06/08 06:53:18;;;;;;;14.98;4.63;;;14.50;99.90;;;;;;4901008;29;20029;-89
2023/06/08 06:55:46;;;;;;;14.88;4.93;;;14.50;99.90;;;;;;4885681;29;20443;-89
2023/06/08 06:58:24;;;;;;;14.80;4.50;;;14.50;99.90;;;;;;4885826;29;20029;-89
2023/06/08 07:00:55;;;;;;;20.25;5.07;;;14.50;99.90;;;;;;4901169;29;20032;-89
2023/06/08 07:03:31;;;;;;;19.08;4.72;;;14.60;99.90;;;;;;4886306;29;20401;-89
2023/06/08 07:06:00;;;;;;;16.80;4.80;;;14.60;99.90;;;;;;4893185;29;20048;-89
2023/06/08 07:08:27;;;;;;;15.40;4.43;;;14.70;99.90;;;;;;4885617;29;20219;-90
2023/06/08 07:10:54;;;;;;;13.88;4.90;;;14.80;99.90;;;;;;4900972;29;20036;-89
2023/06/08 07:13:22;;;;;;;16.17;4.50;;;15.00;99.90;;;;;;4900919;29;20116;-89
2023/06/08 07:15:49;;;;;;;18.42;5.63;;;14.90;99.90;;;;;;4885777;29;20331;-89
2023/06/08 07:18:24;;;;;;;13.55;4.35;;;15.00;99.90;;;;;;4890040;29;20095;-89
2023/06/08 07:20:51;;;;;;;16.05;4.82;;;15.10;99.90;;;;;;4901831;29;20032;-89
2023/06/08 07:23:17;;;;;;;16.42;4.63;;;15.10;99.90;;;;;;4869570;29;20029;-89
2023/06/08 07:25:51;;;;;;;12.32;4.25;;;15.20;99.90;;;;;;4906219;29;20029;-89
2023/06/08 07:28:20;;;;;;;11.43;4.22;;;15.20;99.90;;;;;;4866817;29;20033;-89
2023/06/08 07:30:46;;;;;;;16.75;4.38;;;15.30;99.90;;;;;;4866471;29;20033;-89
2023/06/08 07:33:17;;;;;;;18.27;4.53;;;15.40;99.90;;;;;;4881583;29;20104;-89
2023/06/08 07:35:43;;;;;;;15.98;4.50;;;15.50;99.90;;;;;;4885211;29;20116;-89
2023/06/08 07:38:14;;;;;;;18.52;4.82;;;15.50;99.90;;;;;;4850332;29;20197;-89
2023/06/08 07:40:46;;;;;;;14.80;4.50;;;15.60;99.90;;;;;;4881750;29;20180;-89
2023/06/08 07:43:12;;;;;;;17.15;5.20;;;15.60;99.90;;;;;;4881843;29;20025;-89
2023/06/08 07:45:43;;;;;;;15.32;4.60;;;15.70;99.90;;;;;;4866358;29;20033;-89
2023/06/08 07:48:13;;;;;;;13.48;4.90;;;15.80;99.90;;;;;;4881669;29;20049;-89
2023/06/08 07:50:43;;;;;;;14.95;4.55;;;15.80;99.90;;;;;;4881887;29;20037;-89
2023/06/08 07:53:14;;;;;;;17.13;5.75;;;15.80;99.90;;;;;;4866179;29;20040;-89
2023/06/08 07:55:40;;;;;;;14.05;4.63;;;15.80;99.90;;;;;;4890372;29;20037;-90
2023/06/08 07:58:10;;;;;;;12.57;4.55;;;15.90;99.90;;;;;;4870226;29;20032;-89
2023/06/08 08:00:43;;;;;;;13.45;5.05;;;15.90;99.90;;;;;;4900239;29;20060;-88
2023/06/08 08:03:12;;;;;;;13.25;4.57;;;15.90;99.90;;;;;;4897964;29;20017;-89
2023/06/08 08:05:42;;;;;;;14.77;4.68;;;16.00;99.90;;;;;;4836952;29;20043;-90
2023/06/08 08:08:12;;;;;;;11.45;4.65;;;16.10;99.90;;;;;;4850837;29;20033;-89
2023/06/08 08:10:38;;;;;;;13.25;4.72;;;16.10;99.90;;;;;;4866489;29;20033;-89
2023/06/08 08:13:07;;;;;;;15.38;4.80;;;16.20;99.90;;;;;;4898259;29;20029;-89
2023/06/08 08:15:43;;;;;;;16.08;5.18;;;16.20;99.90;;;;;;4868218;29;20040;-90
2023/06/08 08:18:22;;;;;;;14.15;5.00;;;16.20;99.90;;;;;;4891081;29;20029;-89
2023/06/08 08:20:51;;;;;;;11.85;4.75;;;16.40;99.90;;;;;;4866581;29;20029;-90
2023/06/08 08:23:27;;;;;;;11.60;4.47;;;16.50;99.90;;;;;;4867221;29;20423;-89
2023/06/08 08:25:55;;;;;;;14.52;5.28;;;16.50;99.90;;;;;;4882828;29;20320;-90
2023/06/08 08:28:24;;;;;;;17.23;5.43;;;16.60;99.90;;;;;;4897004;29;20094;-89
2023/06/08 08:30:50;;;;;;;12.45;4.75;;;16.60;99.90;;;;;;4865853;29;20052;-89
2023/06/08 08:33:21;;;;;;;15.18;5.30;;;16.70;99.90;;;;;;4866636;29;20025;-89
2023/06/08 08:35:50;;;;;;;12.52;4.82;;;16.80;99.90;;;;;;4882066;29;20081;-89
2023/06/08 08:38:30;;;;;;;14.02;4.88;;;16.90;99.90;;;;;;4866793;29;20104;-89
2023/06/08 08:41:02;;;;;;;13.55;5.00;;;17.00;99.90;;;;;;4850919;29;20033;-89
2023/06/08 08:43:41;;;;;;;15.90;4.78;;;17.10;99.90;;;;;;4896645;29;20487;-89
2023/06/08 08:46:13;;;;;;;16.88;4.72;;;17.10;99.90;;;;;;4881590;29;20029;-90
2023/06/08 08:48:43;;;;;;;10.70;4.40;;;17.20;99.90;;;;;;4881883;29;20033;-89
2023/06/08 08:51:19;;;;;;;11.38;4.20;;;17.30;99.90;;;;;;4866604;29;20069;-89
2023/06/08 08:53:57;;;;;;;13.07;4.28;;;17.30;99.90;;;;;;4871266;29;20427;-90
2023/06/08 08:56:28;;;;;;;13.65;4.22;;;17.40;99.90;;;;;;4881812;29;20061;-89
2023/06/08 08:58:59;;;;;;;14.05;5.03;;;17.40;99.90;;;;;;4881770;29;20423;-90
2023/06/08 09:01:30;;;;;;;11.93;4.13;;;17.30;99.90;;;;;;4881166;29;20040;-89
2023/06/08 09:04:05;;;;;;;16.45;4.75;;;17.30;99.90;;;;;;4885678;29;20028;-90
2023/06/08 09:06:33;;;;;;;13.45;4.68;;;17.40;99.90;;;;;;4884799;29;20029;-89
2023/06/08 09:09:09;;;;;;;;;;;17.50;99.90;;;;;;4885806;29;20036;-89
2023/06/08 09:12:05;;;;;;;15.27;3.88;;;17.60;99.90;;;;;;4899744;29;20010;-89
2023/06/08 09:15:01;;;;;;;13.82;3.97;;;17.60;99.90;;;;;;4897751;29;20040;-90
2023/06/08 09:17:50;;;;;;;14.38;4.00;;;17.60;99.90;;;;;;4881154;29;20064;-89
2023/06/08 09:20:39;;;;;;;12.60;4.00;;;17.70;99.90;;;;;;4883460;29;20189;-89
2023/06/08 09:23:26;;;;;;;11.10;3.90;;;17.80;99.90;;;;;;4868826;29;20128;-90
2023/06/08 09:26:02;;;;;;;12.40;3.63;;;17.90;99.90;;;;;;4883835;29;20029;-90
2023/06/08 09:28:37;;;;;;;13.10;3.95;;;17.90;99.90;;;;;;4900203;29;20423;-90
2023/06/08 09:31:11;;;;;;;12.75;4.25;;;17.90;99.90;;;;;;4869110;29;20069;-90
2023/06/08 09:33:37;;;;;;;13.30;3.95;;;18.00;99.90;;;;;;4884722;29;20423;-90
2023/06/08 09:36:17;;;;;;;10.57;4.13;;;18.10;99.90;;;;;;4884291;29;20029;-90
2023/06/08 09:38:58;;;;;;;11.55;4.60;;;18.00;99.90;;;;;;4884136;29;20084;-90
2023/06/08 09:41:28;;;;;;;13.50;5.18;;;18.00;99.90;;;;;;4900633;29;20096;-90
2023/06/08 09:44:00;;;;;;;15.23;5.47;;;18.00;99.90;;;;;;4857135;29;20522;-89
2023/06/08 09:46:45;;;;;;;14.20;4.90;;;18.00;99.90;;;;;;4902744;29;20043;-90
2023/06/08 09:49:30;;;;;;;19.65;4.53;;;18.10;99.90;;;;;;4889312;29;20147;-89
2023/06/08 09:52:24;;;;;;;14.82;4.22;;;18.10;99.90;;;;;;4871048;29;20508;-90
2023/06/08 09:55:12;;;;;;;8.90;3.55;;;18.20;99.90;;;;;;4883979;29;20060;-90
2023/06/08 09:57:54;;;;;;;11.00;4.13;;;18.30;99.90;;;;;;4883688;29;20135;-90
2023/06/08 10:00:23;;;;;;;14.23;4.15;;;18.30;99.90;;;;;;4868356;29;20427;-90
2023/06/08 10:03:15;;;;;;;13.57;4.38;;;18.30;99.90;;;;;;4911968;29;20050;-90
2023/06/08 10:05:52;;;;;;;10.73;3.70;;;18.40;99.90;;;;;;4916490;29;20124;-90
2023/06/08 10:08:30;;;;;;;14.65;4.57;;;18.40;99.90;;;;;;4887726;29;20111;-89
2023/06/08 10:11:02;;;;;;;15.95;4.93;;;18.40;99.90;;;;;;4872412;29;20110;-90
2023/06/08 10:13:43;;;;;;;15.93;5.45;;;18.40;99.90;;;;;;4902514;29;20042;-90
2023/06/08 10:16:26;;;;;;;12.27;4.72;;;18.40;99.90;;;;;;4887491;29;20043;-90
2023/06/08 10:19:00;;;;;;;10.48;4.70;;;18.40;99.90;;;;;;4886952;29;20039;-89
2023/06/08 10:21:35;;;;;;;13.70;5.03;;;18.50;99.90;;;;;;4886815;29;20036;-90
2023/06/08 10:24:08;;;;;;;12.38;4.93;;;18.60;99.90;;;;;;4886167;29;20040;-89
2023/06/08 10:26:39;;;;;;;12.30;5.53;;;18.80;99.90;;;;;;4886436;29;20413;-90
2023/06/08 10:29:10;;;;;;;14.32;5.70;;;18.80;99.90;;;;;;4887059;29;20035;-90
2023/06/08 10:31:54;;;;;;;14.77;5.18;;;18.80;99.90;;;;;;4888036;29;20037;-91
2023/06/08 10:34:37;;;;;;;11.70;5.07;;;18.80;99.90;;;;;;4887525;29;20059;-90
2023/06/08 10:37:28;;;;;;;11.20;4.93;;;18.80;99.90;;;;;;4886430;29;20053;-89
2023/06/08 10:40:10;;;;;;;13.20;5.38;;;18.80;99.90;;;;;;4917042;29;20461;-89
2023/06/08 10:42:54;;;;;;;17.38;5.80;;;18.80;99.90;;;;;;4901671;29;20028;-90
2023/06/08 10:45:36;;;;;;;18.20;6.05;;;18.90;99.90;;;;;;4886645;29;20037;-90
2023/06/08 10:48:34;;;;;;;15.50;5.38;;;19.00;99.90;;;;;;4902204;29;20037;-90
2023/06/08 10:51:09;;;;;;;17.02;4.75;;;19.10;99.90;;;;;;4886472;29;20458;-89
2023/06/08 10:53:59;;;;;;;12.77;4.25;;;19.20;99.90;;;;;;4886346;29;20040;-90
2023/06/08 10:56:30;;;;;;;13.70;4.32;;;19.10;99.90;;;;;;4870518;29;20059;-90
2023/06/08 10:59:01;;;;;;;11.25;3.88;;;19.20;99.90;;;;;;4901234;29;20053;-90
2023/06/08 11:01:35;;;;;;;10.73;3.78;;;19.10;99.90;;;;;;4885924;29;20367;-89
2023/06/08 11:04:05;;;;;;;9.50;3.72;;;19.20;99.90;;;;;;4901271;29;20335;-90
2023/06/08 11:06:40;;;;;;;14.82;4.30;;;19.20;99.90;;;;;;4885767;29;20037;-89
2023/06/08 11:09:11;;;;;;;11.95;3.78;;;19.30;99.90;;;;;;4915732;29;20074;-90
2023/06/08 11:11:50;;;;;;;9.30;3.85;;;19.30;99.90;;;;;;4867332;29;20037;-89
2023/06/08 11:14:20;;;;;;;11.10;4.00;;;19.40;99.90;;;;;;4882727;29;20040;-89
2023/06/08 11:16:57;;;;;;;11.77;4.28;;;19.30;99.90;;;;;;4871273;29;20047;-90
2023/06/08 11:19:32;;;;;;;11.25;3.78;;;19.40;99.90;;;;;;4871436;29;20040;-89
2023/06/08 11:22:06;;;;;;;13.70;3.65;;;19.50;99.90;;;;;;4871669;29;20457;-89
2023/06/08 11:24:37;;;;;;;12.40;3.95;;;19.50;99.90;;;;;;4886178;29;20052;-89
2023/06/08 11:27:12;;;;;;;14.63;4.40;;;19.40;99.90;;;;;;4900671;29;20056;-89
2023/06/08 11:29:44;;;;;;;11.60;3.92;;;19.40;99.90;;;;;;4881284;29;20036;-90
2023/06/08 11:32:15;;;;;;;12.00;4.70;;;19.40;99.90;;;;;;4897490;29;20037;-89
2023/06/08 11:34:51;;;;;;;11.77;4.70;;;19.50;99.90;;;;;;4896664;29;20040;-90
2023/06/08 11:37:21;;;;;;;10.60;4.53;;;19.50;99.90;;;;;;4911007;29;20064;-89
2023/06/08 11:39:48;;;;;;;17.23;4.78;;;19.60;99.90;;;;;;4869467;29;20036;-89
2023/06/08 11:42:21;;;;;;;12.32;4.72;;;19.60;99.90;;;;;;4870476;29;20103;-89
2023/06/08 11:45:07;;;;;;;13.93;5.28;;;19.70;99.90;;;;;;4914566;29;20084;-89
2023/06/08 11:47:42;;;;;;;12.40;3.88;;;19.70;99.90;;;;;;4900080;29;20032;-89
2023/06/08 11:50:12;;;;;;;13.90;4.25;;;19.70;99.90;;;;;;4884337;29;20096;-89
2023/06/08 11:52:41;;;;;;;8.95;3.47;;;19.60;99.90;;;;;;4915965;29;20037;-89
2023/06/08 11:55:15;;;;;;;13.00;3.83;;;19.60;99.90;;;;;;4884690;29;20047;-89
2023/06/08 11:57:53;;;;;;;8.63;3.03;;;19.70;99.90;;;;;;4885049;29;20037;-90
2023/06/08 12:00:34;;;;;;;8.07;2.70;;;19.80;99.90;;;;;;4871951;29;20043;-89
2023/06/08 12:03:04;;;;;;;9.40;2.80;;;19.80;99.90;;;;;;4885892;29;20071;-90
2023/06/08 12:05:32;;;;;;;12.20;3.42;;;19.90;99.90;;;;;;4899782;29;20032;-89
2023/06/08 12:08:14;;;;;;;9.30;2.83;;;20.00;99.90;;;;;;4884869;29;20112;-89
2023/06/08 12:10:56;;;;;;;10.07;2.75;;;19.90;99.90;;;;;;4884520;29;20331;-88
2023/06/08 12:13:24;;;;;;;9.25;2.90;;;19.90;99.90;;;;;;4869051;29;20033;-89
2023/06/08 12:15:54;;;;;;;11.48;2.80;;;20.10;99.90;;;;;;4884960;29;20041;-89
2023/06/08 12:18:48;;;;;;;10.77;3.10;;;20.10;99.90;;;;;;4886786;29;20024;-89
2023/06/08 12:21:21;;;;;;;6.97;2.22;;;20.20;99.90;;;;;;4885691;29;20089;-89
2023/06/08 12:23:47;;;;;;;8.45;3.03;;;20.30;99.90;;;;;;4884121;29;20055;-90
2023/06/08 12:26:16;;;;;;;10.35;2.53;;;20.30;99.90;;;;;;4869424;29;20138;-89
2023/06/08 12:28:47;;;;;;;12.05;2.90;;;20.30;99.90;;;;;;4899924;29;20043;-89
2023/06/08 12:31:16;;;;;;;10.00;2.80;;;20.20;99.90;;;;;;4899894;29;20041;-89
2023/06/08 12:33:44;;;;;;;8.82;2.88;;;20.10;99.90;;;;;;4884271;29;20434;-90
2023/06/08 12:36:15;;;;;;;8.77;2.90;;;20.10;99.90;;;;;;4884637;29;20040;-89
2023/06/08 12:38:44;;;;;;;8.57;2.60;;;20.10;99.90;;;;;;4853941;29;20037;-89
2023/06/08 12:41:18;;;;;;;11.00;3.17;;;20.10;99.90;;;;;;4854002;29;20461;-89
2023/06/08 12:43:50;;;;;;;13.40;3.03;;;20.10;99.90;;;;;;4854375;29;20036;-89
2023/06/08 12:46:29;;;;;;;6.80;3.00;;;20.10;99.90;;;;;;4854805;29;20033;-89
2023/06/08 12:49:03;;;;;;;7.72;2.47;;;20.20;99.90;;;;;;4884561;29;20049;-89
2023/06/08 12:51:42;;;;;;;9.40;2.92;;;20.30;99.90;;;;;;4884228;29;20088;-89
2023/06/08 12:54:39;;;;;;;10.15;2.72;;;20.30;99.90;;;;;;4888485;29;20434;-90
2023/06/08 12:57:27;;;;;;;10.82;2.65;;;20.30;99.90;;;;;;4871334;29;20041;-88